Flugplatz - Wetter - Augsburg

[Quelle: ADDS]
METAR
EDMA 271820Z 07004KT 040V110 8000 RA BKN008 OVC013 04/03 Q1013 =
TAF
EDMA 271700Z 2718/2803 05003KT 8000 BKN010 TEMPO 2718/2721 4000 -RADZ BKN006 BECMG 2721/2723 2500 RASN OVC004 =
SR / SS: 04:05 / 18:27 UTC (Günzburg 2017-04-27)

Flugplatz - Wetter - Laupheim

[Quelle: ADDS]
METAR
ETHL 271820Z VRB01KT 6000 RA FEW004 OVC008 03/02 Q1013 GRN GRN TEMPO YLO =
TAF
ETHL 271615Z 2717/2802 05005KT 9000 -RA SCT006 BKN010 TEMPO 2717/2802 06008KT 4000 RA BKN006 OVC010 =

Notice: Undefined index: sun in /homepages/1/d158740339/htdocs/joomla/modules/mod_wx/tmpl/default.php on line 13

Flugplatz - Wetter - Memmingen

[Quelle: ADDS]
METAR
EDJA 271820Z 03004KT 3400 -SN FEW002 BKN004 OVC140 01/00 Q1012 =
TAF
COR EDJA 271752Z 2718/2803 04005KT 8000 OVC005 TEMPO 2718/2720 3000 -SNRA OVC004 BECMG 2720/2722 2000 -SNRA OVC004 TEMPO 2722/2803 1200 SN =

Notice: Undefined index: sun in /homepages/1/d158740339/htdocs/joomla/modules/mod_wx/tmpl/default.php on line 13

Flugplatz - Wetter - Neuburg/Donau

[Quelle: ADDS]
METAR
ETSN 271820Z 09004KT 9999 -DZ FEW008 BKN018 OVC039 05/03 Q1013 WHT =
TAF
ETSN 271620Z 2717/2802 VRB03KT 9000 NSW SCT010 BKN025 TEMPO 2717/2802 34005KT 4000 -RA BKN010 OVC025 BY ETGL =

Notice: Undefined index: sun in /homepages/1/d158740339/htdocs/joomla/modules/mod_wx/tmpl/default.php on line 13

Flugplatz - Wetter - Stuttgart

[Quelle: ADDS]
METAR
EDDS 271820Z VRB01KT 9999 FEW021 SCT040 BKN100 06/03 Q1013 NOSIG =
TAF
EDDS 271700Z 2718/2818 03003KT 9999 SCT025 BKN040 PROB30 TEMPO 2804/2808 4000 -RA BR SCT008 BKN012 BECMG 2805/2808 33005KT =

Notice: Undefined index: sun in /homepages/1/d158740339/htdocs/joomla/modules/mod_wx/tmpl/default.php on line 13

Flugplatz - Wetter - Niederstetten

[Quelle: ADDS]
METAR
ETHN 271820Z 15002KT 9999 FEW025 BKN080 05/03 Q1013 BLU =
TAF
AMD ETHN 271545Z 2714/2723 35005KT 9000 NSW FEW015 BKN025 TEMPO 2714/2720 29010KT 6000 /W/W/W/NSW2/ BKN012 BKN020TCU CANCEL 1545 =

Notice: Undefined index: sun in /homepages/1/d158740339/htdocs/joomla/modules/mod_wx/tmpl/default.php on line 13